Time;durP1;ratioP1;P1;durP2;ratioP2;P2;SDS_P1;SDS_P2;PMS_P1;PMS_P2;Temp;Humidity;BMP_temperature;BMP_pressure;BME280_temperature;BME280_humidity;BME280_pressure;Samples;Min_cycle;Max_cycle;Signal;HPM_P1;HPM_P2
2021/03/15 00:00:07;;;;;;;18.25;10.63;;;;;;;6.17;67.77;100231.36;1669253;85;21215;-53
2021/03/15 00:03:13;;;;;;;17.40;10.32;;;;;;;6.22;67.57;100224.11;1700300;83;21375;-53
2021/03/15 00:06:20;;;;;;;14.07;9.83;;;;;;;6.14;67.33;100220.80;1668844;85;21215;-53
2021/03/15 00:09:26;;;;;;;15.90;9.95;;;;;;;6.01;67.51;100214.37;1668685;84;21314;-52
2021/03/15 00:12:34;;;;;;;16.40;10.63;;;;;;;5.91;67.55;100205.92;1668642;84;21274;-53
2021/03/15 00:15:39;;;;;;;16.77;9.95;;;;;;;5.78;67.70;100198.09;1700362;84;21229;-52
2021/03/15 00:18:45;;;;;;;18.98;10.00;;;;;;;5.70;67.87;100194.41;1668617;84;21231;-53
2021/03/15 00:21:53;;;;;;;16.73;10.85;;;;;;;5.54;68.04;100187.39;1700254;84;21804;-52
2021/03/15 00:24:58;;;;;;;17.10;10.50;;;;;;;5.37;68.36;100187.67;1668781;85;21310;-53
2021/03/15 00:28:03;;;;;;;19.15;11.00;;;;;;;5.23;68.79;100184.05;1699934;83;21249;-53
2021/03/15 00:31:08;;;;;;;22.30;11.65;;;;;;;5.14;69.09;100186.30;1668599;86;21238;-53
2021/03/15 00:34:14;;;;;;;18.37;10.68;;;;;;;5.02;69.31;100181.19;1700949;83;21814;-53
2021/03/15 00:37:19;;;;;;;18.32;10.65;;;;;;;4.82;69.74;100175.45;1668966;84;21257;-52
2021/03/15 00:40:28;;;;;;;16.20;10.23;;;;;;;4.68;70.17;100175.37;1700357;84;21842;-52
2021/03/15 00:43:34;;;;;;;18.00;11.97;;;;;;;4.61;70.38;100165.59;1668489;84;21905;-53
2021/03/15 00:46:41;;;;;;;16.35;10.85;;;;;;;4.54;70.44;100160.90;1700337;84;21383;-52
2021/03/15 00:49:46;;;;;;;16.67;10.88;;;;;;;4.46;70.62;100164.33;1669267;85;21711;-52
2021/03/15 00:52:52;;;;;;;17.17;10.53;;;;;;;4.41;70.85;100169.80;1700330;83;21430;-54
2021/03/15 00:55:57;;;;;;;14.83;10.72;;;;;;;4.44;71.02;100170.38;1669053;85;21239;-53
2021/03/15 00:59:03;;;;;;;16.37;10.40;;;;;;;4.50;70.96;100167.09;1700094;83;21415;-55
2021/03/15 01:02:10;;;;;;;15.00;10.55;;;;;;;4.57;70.75;100167.38;1668593;84;21282;-54
2021/03/15 01:05:18;;;;;;;19.92;10.18;;;;;;;4.58;70.61;100164.53;1668718;85;21290;-53
2021/03/15 01:08:23;;;;;;;17.17;10.28;;;;;;;4.63;70.59;100164.96;1668519;84;21268;-53
2021/03/15 01:11:30;;;;;;;15.72;9.65;;;;;;;4.70;70.41;100158.95;1668622;86;21212;-53
2021/03/15 01:14:37;;;;;;;17.62;11.10;;;;;;;4.74;70.26;100166.65;1668620;86;21265;-54
2021/03/15 01:17:44;;;;;;;22.37;11.70;;;;;;;4.77;70.00;100166.88;1668730;84;21289;-53
2021/03/15 01:20:50;;;;;;;18.55;10.48;;;;;;;4.74;69.74;100168.53;1700240;84;21360;-53
2021/03/15 01:23:56;;;;;;;15.32;10.32;;;;;;;4.72;69.70;100166.45;1668989;84;21231;-53
2021/03/15 01:27:01;;;;;;;19.75;10.93;;;;;;;4.71;69.69;100175.59;1700175;84;21418;-54
2021/03/15 01:30:06;;;;;;;16.80;10.63;;;;;;;4.72;69.70;100174.59;1669311;83;21322;-54
2021/03/15 01:33:13;;;;;;;17.95;11.75;;;;;;;4.75;69.56;100181.08;1700720;83;21256;-54
2021/03/15 01:36:19;;;;;;;17.62;11.38;;;;;;;4.79;69.43;100182.52;1640207;87;21213;-54
2021/03/15 01:39:25;;;;;;;16.27;11.22;;;;;;;4.84;69.24;100177.48;1700689;82;21272;-53
2021/03/15 01:42:30;;;;;;;19.85;11.55;;;;;;;4.89;69.05;100194.19;1639970;86;21321;-53
2021/03/15 01:45:40;;;;;;;20.72;11.88;;;;;;;4.93;68.91;100196.45;1700501;84;21391;-52
2021/03/15 01:48:45;;;;;;;16.80;12.23;;;;;;;4.98;68.77;100191.46;1640163;86;21238;-53
2021/03/15 01:51:51;;;;;;;18.10;12.30;;;;;;;4.98;68.60;100187.91;1700190;84;21414;-54
2021/03/15 01:54:57;;;;;;;18.95;12.07;;;;;;;4.95;68.52;100191.75;1639795;87;21682;-54
2021/03/15 01:58:03;;;;;;;23.25;14.00;;;;;;;4.89;68.47;100190.98;1700571;83;21372;-53
2021/03/15 02:01:08;;;;;;;23.02;14.40;;;;;;;4.86;68.42;100193.13;1668875;85;21523;-53
2021/03/15 02:04:14;;;;;;;24.32;13.85;;;;;;;4.75;68.45;100189.20;1700274;83;21676;-53
2021/03/15 02:07:19;;;;;;;22.95;14.75;;;;;;;4.67;68.48;100187.71;1640173;86;21232;-53
2021/03/15 02:10:24;;;;;;;26.23;15.28;;;;;;;4.61;68.65;100190.52;1700457;84;21209;-53
2021/03/15 02:14:10;;;;;;;24.43;14.58;;;;;;;4.57;68.72;100194.00;1640036;86;21316;-53
2021/03/15 02:17:25;;;;;;;25.20;15.10;;;;;;;4.55;68.83;100189.21;1700512;83;21359;-52
2021/03/15 02:21:07;;;;;;;26.10;16.50;;;;;;;4.52;68.89;100187.28;1668612;85;21795;-54
2021/03/15 02:24:58;;;;;;;27.40;16.50;;;;;;;4.50;68.94;100198.78;1700332;83;21383;-53
2021/03/15 02:28:37;;;;;;;23.92;14.80;;;;;;;4.51;68.97;100195.06;1668661;84;21321;-53
2021/03/15 02:32:02;;;;;;;24.82;15.18;;;;;;;4.51;68.92;100201.35;1707562;83;21241;-52
2021/03/15 02:35:27;;;;;;;24.95;14.98;;;;;;;4.49;68.92;100201.12;1677943;85;21361;-53
2021/03/15 02:38:26;;;;;;;24.60;15.95;;;;;;;4.50;68.99;100209.63;1678679;84;21281;-52
2021/03/15 02:41:32;;;;;;;28.98;15.53;;;;;;;4.55;69.04;100212.25;1697907;84;21480;-52
2021/03/15 02:44:39;;;;;;;25.57;16.02;;;;;;;4.57;68.94;100212.98;1678621;85;21795;-52
2021/03/15 02:47:45;;;;;;;24.07;15.98;;;;;;;4.54;68.83;100205.12;1705339;83;21386;-52
2021/03/15 02:50:50;;;;;;;28.32;17.50;;;;;;;4.50;68.99;100206.39;1678986;85;21377;-55
2021/03/15 02:53:55;;;;;;;22.45;15.43;;;;;;;4.56;69.15;100198.20;1678671;84;21262;-53
2021/03/15 02:57:01;;;;;;;25.68;15.78;;;;;;;4.69;69.20;100206.92;1705651;84;21395;-53
2021/03/15 03:00:07;;;;;;;23.85;15.63;;;;;;;4.80;69.00;100195.06;1678653;85;21807;-53
2021/03/15 03:03:13;;;;;;;26.65;16.40;;;;;;;4.87;68.63;100198.92;1705728;83;21363;-53
2021/03/15 03:06:19;;;;;;;25.75;16.57;;;;;;;4.77;68.44;100207.55;1678726;85;21910;-53
2021/03/15 03:09:24;;;;;;;24.85;15.85;;;;;;;4.72;68.64;100208.48;1676693;84;21815;-53
2021/03/15 03:12:30;;;;;;;26.37;16.37;;;;;;;4.78;68.68;100209.25;1705457;83;21317;-55
2021/03/15 03:15:38;;;;;;;23.70;16.25;;;;;;;4.80;68.67;100208.62;1678673;85;21258;-52
2021/03/15 03:18:45;;;;;;;26.52;17.17;;;;;;;4.87;68.66;100210.61;1676480;84;21389;-51
2021/03/15 03:21:50;;;;;;;24.45;15.28;;;;;;;4.95;68.52;100213.97;1704423;84;21360;-52
2021/03/15 03:24:55;;;;;;;31.00;17.27;;;;;;;5.03;68.38;100212.23;1683536;84;21205;-53
2021/03/15 03:28:02;;;;;;;21.52;15.63;;;;;;;5.11;68.18;100212.86;1678782;84;21230;-52
2021/03/15 03:31:08;;;;;;;26.10;16.10;;;;;;;5.11;67.99;100206.94;1676275;84;21396;-52
2021/03/15 03:34:15;;;;;;;23.60;16.12;;;;;;;5.10;67.83;100207.95;1705237;83;21239;-53
2021/03/15 03:37:20;;;;;;;24.15;16.17;;;;;;;5.06;67.76;100209.23;1678390;84;21364;-53
2021/03/15 03:40:25;;;;;;;26.17;17.42;;;;;;;4.99;67.81;100204.05;1661976;85;21242;-53
2021/03/15 03:43:30;;;;;;;27.42;16.65;;;;;;;4.98;67.94;100200.95;1678616;84;21384;-54
2021/03/15 03:46:36;;;;;;;33.60;17.57;;;;;;;4.98;67.99;100201.48;1705089;84;21297;-52
2021/03/15 03:49:42;;;;;;;29.57;18.15;;;;;;;4.94;68.04;100196.84;1678971;85;21791;-52
2021/03/15 03:52:57;;;;;;;28.95;18.02;;;;;;;4.86;68.09;100198.05;1705542;83;21907;-52
2021/03/15 03:56:21;;;;;;;30.23;18.15;;;;;;;4.80;68.37;100204.06;1678662;85;21898;-52
2021/03/15 03:59:31;;;;;;;28.50;17.42;;;;;;;4.79;68.46;100205.56;1705432;82;21406;-53
2021/03/15 04:02:37;;;;;;;26.85;17.82;;;;;;;4.78;68.72;100201.98;1678524;84;21266;-50
2021/03/15 04:05:44;;;;;;;30.85;18.17;;;;;;;4.82;68.72;100202.04;1705804;84;21300;-52
2021/03/15 04:09:03;;;;;;;28.20;18.42;;;;;;;4.80;68.79;100196.42;1678628;84;21246;-50
2021/03/15 04:12:18;;;;;;;28.07;17.80;;;;;;;4.84;68.85;100203.25;1705359;83;21371;-50
2021/03/15 04:15:24;;;;;;;28.52;17.80;;;;;;;4.84;68.78;100195.11;1678671;85;21215;-51
2021/03/15 04:18:33;;;;;;;31.27;18.95;;;;;;;4.80;68.89;100200.48;1705106;82;21205;-51
2021/03/15 04:21:39;;;;;;;28.90;19.15;;;;;;;4.84;69.11;100199.18;1678555;85;21268;-50
2021/03/15 04:24:45;;;;;;;31.15;18.17;;;;;;;4.89;69.03;100199.12;1705601;84;21347;-50
2021/03/15 04:27:51;;;;;;;32.90;19.85;;;;;;;4.93;69.05;100200.53;1678092;84;21258;-51
2021/03/15 04:30:56;;;;;;;27.20;18.82;;;;;;;4.99;69.00;100197.75;1676526;85;21409;-52
2021/03/15 04:34:03;;;;;;;31.05;20.52;;;;;;;4.98;68.81;100196.05;1645981;84;21229;-51
2021/03/15 04:37:13;;;;;;;35.10;21.40;;;;;;;4.93;68.96;100196.98;1655341;85;21246;-50
2021/03/15 04:40:20;;;;;;;29.55;19.42;;;;;;;4.97;69.07;100195.67;1672791;86;21256;-50
2021/03/15 04:43:27;;;;;;;29.98;18.12;;;;;;;4.97;69.11;100192.48;1645330;86;21269;-51
2021/03/15 04:46:32;;;;;;;32.05;20.30;;;;;;;4.95;69.13;100190.92;1707077;84;21928;-51
2021/03/15 04:49:38;;;;;;;32.45;19.70;;;;;;;4.91;69.30;100198.97;1672929;86;21310;-52
2021/03/15 04:52:44;;;;;;;34.10;20.27;;;;;;;4.91;69.45;100195.77;1668973;84;21253;-52
2021/03/15 04:55:50;;;;;;;39.10;21.23;;;;;;;4.96;69.64;100196.69;1651831;87;21365;-51
2021/03/15 04:58:57;;;;;;;40.73;21.33;;;;;;;5.03;69.66;100200.03;1706888;82;21754;-51
2021/03/15 05:02:02;;;;;;;44.15;22.32;;;;;;;5.06;69.74;100193.47;1673147;86;21770;-51
2021/03/15 05:05:08;;;;;;;46.40;23.73;;;;;;;5.07;69.96;100189.26;1656154;86;21426;-51
2021/03/15 05:08:15;;;;;;;51.92;24.18;;;;;;;5.09;70.10;100186.39;1707308;82;21248;-51
2021/03/15 05:11:21;;;;;;;51.48;25.72;;;;;;;5.06;70.42;100195.66;1673125;86;21239;-52
2021/03/15 05:14:27;;;;;;;45.15;21.90;;;;;;;5.04;70.75;100192.75;1655507;85;21261;-52
2021/03/15 05:17:33;;;;;;;45.17;22.17;;;;;;;4.99;70.98;100191.84;1706763;82;21371;-50
2021/03/15 05:20:38;;;;;;;44.53;21.27;;;;;;;4.95;71.31;100193.63;1673306;86;21234;-51
2021/03/15 05:23:45;;;;;;;46.95;21.80;;;;;;;4.90;71.70;100200.82;1655908;85;21350;-51
2021/03/15 05:26:50;;;;;;;47.25;22.58;;;;;;;4.89;72.05;100203.68;1685493;84;21372;-51
2021/03/15 05:29:55;;;;;;;50.30;22.40;;;;;;;4.86;72.40;100199.91;1644354;87;21253;-52
2021/03/15 05:33:02;;;;;;;44.70;23.42;;;;;;;4.91;72.79;100205.75;1654692;86;21356;-51
2021/03/15 05:36:08;;;;;;;50.55;22.10;;;;;;;4.99;73.02;100203.18;1711468;83;21375;-50
2021/03/15 05:39:15;;;;;;;47.65;22.62;;;;;;;4.98;73.24;100196.89;1710721;82;21205;-51
2021/03/15 05:42:33;;;;;;;46.35;22.05;;;;;;;4.91;73.58;100202.55;1685151;83;21244;-51
2021/03/15 05:46:10;;;;;;;46.23;21.90;;;;;;;4.86;74.01;100199.91;1710073;83;21208;-50
2021/03/15 05:50:00;;;;;;;41.63;21.50;;;;;;;4.88;74.30;100204.69;1687747;84;21210;-51
2021/03/15 05:53:21;;;;;;;40.23;20.55;;;;;;;4.93;74.35;100207.30;1681106;83;21245;-52
2021/03/15 05:56:51;;;;;;;51.18;22.32;;;;;;;4.95;74.20;100214.81;1680494;83;21218;-50
2021/03/15 06:00:25;;;;;;;44.48;21.00;;;;;;;4.97;74.13;100214.66;1688454;83;21568;-51
2021/03/15 06:04:10;;;;;;;45.92;22.82;;;;;;;4.98;74.12;100218.59;1710258;82;21248;-52
2021/03/15 06:07:16;;;;;;;51.77;19.80;;;;;;;5.03;74.16;100223.08;1694089;83;21731;-51
2021/03/15 06:10:38;;;;;;;45.85;21.05;;;;;;;5.14;74.07;100224.80;1715200;83;21224;-50
2021/03/15 06:13:42;;;;;;;41.40;21.30;;;;;;;5.27;73.96;100222.61;1716830;82;21236;-50
2021/03/15 06:16:49;;;;;;;41.73;21.10;;;;;;;5.41;73.68;100218.07;1692519;85;21234;-53
2021/03/15 06:19:57;;;;;;;48.00;22.58;;;;;;;5.48;73.31;100228.22;1691713;85;21735;-52
2021/03/15 06:23:03;;;;;;;44.38;22.98;;;;;;;5.51;73.03;100221.62;1663543;85;21216;-51
2021/03/15 06:26:08;;;;;;;43.00;23.40;;;;;;;5.54;72.77;100226.75;1673119;84;21717;-50
2021/03/15 06:29:14;;;;;;;39.75;22.70;;;;;;;5.58;72.71;100230.91;1658352;85;21270;-52
2021/03/15 06:32:20;;;;;;;38.17;21.42;;;;;;;5.65;72.56;100224.72;1633883;86;21590;-50
2021/03/15 06:35:27;;;;;;;42.78;24.00;;;;;;;5.74;72.32;100229.77;1657229;83;21244;-50
2021/03/15 06:38:33;;;;;;;46.02;21.75;;;;;;;5.84;72.11;100232.83;1639929;86;21385;-49
2021/03/15 06:41:39;;;;;;;41.58;22.02;;;;;;;5.89;71.76;100233.23;1627685;88;21386;-51
2021/03/15 06:44:49;;;;;;;38.33;20.57;;;;;;;5.89;71.60;100224.22;1646207;85;21252;-51
2021/03/15 06:47:57;;;;;;;36.68;20.68;;;;;;;5.90;71.51;100220.48;1659891;86;21266;-51
2021/03/15 06:51:04;;;;;;;33.30;19.65;;;;;;;5.98;71.52;100216.52;1668573;86;21798;-51
2021/03/15 06:54:11;;;;;;;35.40;20.32;;;;;;;6.05;71.37;100221.72;1667241;84;21303;-51
2021/03/15 06:57:27;;;;;;;43.42;22.93;;;;;;;6.10;71.13;100222.12;1667995;84;21231;-52
2021/03/15 07:00:36;;;;;;;40.10;20.77;;;;;;;6.09;70.72;100227.19;1699602;84;21241;-50
2021/03/15 07:03:42;;;;;;;37.73;21.97;;;;;;;6.01;70.77;100220.30;1654156;83;21276;-50
2021/03/15 07:06:51;;;;;;;40.03;21.07;;;;;;;6.09;70.91;100219.91;1702443;82;21251;-51
2021/03/15 07:09:57;;;;;;;34.70;20.45;;;;;;;6.26;70.87;100213.30;1654748;85;21783;-51
2021/03/15 07:13:20;;;;;;;41.98;22.75;;;;;;;6.46;70.67;100215.73;1692393;82;21252;-51
2021/03/15 07:16:36;;;;;;;39.05;22.17;;;;;;;6.55;70.10;100204.45;1690364;83;21235;-51
2021/03/15 07:19:42;;;;;;;35.48;21.37;;;;;;;6.60;70.04;100203.45;1667258;86;21282;-53
2021/03/15 07:22:53;;;;;;;33.13;21.40;;;;;;;6.67;70.22;100204.06;1698675;83;21835;-51
2021/03/15 07:25:59;;;;;;;34.75;20.95;;;;;;;6.76;70.23;100207.20;1657992;86;21323;-51
2021/03/15 07:29:06;;;;;;;34.75;20.92;;;;;;;6.87;70.43;100197.44;1696591;83;21777;-51
2021/03/15 07:32:12;;;;;;;35.35;20.45;;;;;;;7.02;70.49;100197.73;1661729;84;21239;-52
2021/03/15 07:35:42;;;;;;;34.70;20.00;;;;;;;7.25;70.60;100190.76;1711616;83;21544;-52
2021/03/15 07:38:48;;;;;;;35.98;21.97;;;;;;;7.52;70.38;100190.10;1670629;84;21265;-51
2021/03/15 07:42:01;;;;;;;35.15;20.10;;;;;;;7.81;70.08;100183.44;1654769;85;21564;-50
2021/03/15 07:45:07;;;;;;;27.87;18.00;;;;;;;8.07;69.49;100189.16;1666451;84;21743;-52
2021/03/15 07:48:14;;;;;;;32.23;19.70;;;;;;;8.25;68.85;100185.86;1704691;82;21249;-49
2021/03/15 07:51:19;;;;;;;32.33;17.73;;;;;;;8.26;68.39;100194.91;1698715;83;21296;-51
2021/03/15 07:54:38;;;;;;;31.20;18.45;;;;;;;8.28;68.55;100193.70;1664061;86;21302;-50
2021/03/15 07:57:47;;;;;;;28.40;19.17;;;;;;;8.30;68.42;100195.77;1687202;83;21988;-51
2021/03/15 08:00:54;;;;;;;28.90;18.17;;;;;;;8.37;68.27;100195.96;1655932;85;21237;-51
2021/03/15 08:04:00;;;;;;;29.40;19.95;;;;;;;8.39;68.29;100192.53;1656936;85;21916;-51
2021/03/15 08:07:06;;;;;;;28.80;19.00;;;;;;;8.43;67.98;100198.02;1655507;84;21296;-51
2021/03/15 08:10:13;;;;;;;28.15;18.67;;;;;;;8.39;67.83;100200.72;1692270;84;21212;-51
2021/03/15 08:13:22;;;;;;;32.17;19.10;;;;;;;8.40;67.99;100195.63;1702964;83;21234;-52
2021/03/15 08:16:28;;;;;;;35.28;20.48;;;;;;;8.56;68.12;100192.41;1662547;84;21293;-50
2021/03/15 08:19:39;;;;;;;30.08;18.82;;;;;;;8.79;67.91;100197.58;1699550;83;21973;-52
2021/03/15 08:22:48;;;;;;;28.52;17.77;;;;;;;8.88;67.18;100197.91;1640593;85;21636;-51
2021/03/15 08:25:54;;;;;;;26.93;17.73;;;;;;;8.98;66.53;100186.83;1701284;84;21829;-52
2021/03/15 08:29:07;;;;;;;27.80;18.55;;;;;;;9.02;66.07;100183.58;1703998;82;21352;-52
2021/03/15 08:32:17;;;;;;;40.52;23.47;;;;;;;9.00;65.89;100191.62;1715726;82;21411;-52
2021/03/15 08:35:25;;;;;;;30.45;17.85;;;;;;;9.04;65.87;100190.23;1704655;82;21244;-52
2021/03/15 08:38:41;;;;;;;27.42;16.50;;;;;;;9.16;65.66;100183.92;1659999;84;21292;-48
2021/03/15 08:41:46;;;;;;;31.65;18.45;;;;;;;9.24;65.61;100183.92;1651865;86;21268;-52
2021/03/15 08:44:54;;;;;;;26.87;17.10;;;;;;;9.41;65.30;100189.19;1650268;85;21236;-51
2021/03/15 08:48:01;;;;;;;33.00;17.80;;;;;;;9.49;64.79;100195.15;1662786;85;21274;-51
2021/03/15 08:51:09;;;;;;;28.32;15.35;;;;;;;9.56;64.38;100198.38;1658972;84;21777;-51
2021/03/15 08:54:16;;;;;;;30.45;16.07;;;;;;;9.58;63.74;100196.33;1654036;85;21243;-51
2021/03/15 08:57:44;;;;;;;28.75;18.10;;;;;;;9.57;63.58;100189.17;1665044;84;21278;-51
2021/03/15 09:00:49;;;;;;;25.77;17.07;;;;;;;9.71;63.74;100193.91;1654545;86;21230;-50
2021/03/15 09:04:06;;;;;;;30.62;18.75;;;;;;;9.91;63.33;100190.27;1652753;85;21352;-51
2021/03/15 09:07:39;;;;;;;28.95;15.30;;;;;;;9.90;62.87;100194.02;1696286;83;21232;-51
2021/03/15 09:10:45;;;;;;;24.80;14.58;;;;;;;9.91;62.92;100185.64;1646817;86;21480;-52
2021/03/15 09:13:51;;;;;;;27.35;15.30;;;;;;;9.86;62.29;100185.84;1664744;84;21271;-52
2021/03/15 09:17:03;;;;;;;28.42;14.28;;;;;;;9.79;62.39;100180.73;1653654;85;21765;-53
2021/03/15 09:20:25;;;;;;;24.50;14.13;;;;;;;9.71;62.36;100189.81;1656171;85;21336;-53
2021/03/15 09:23:41;;;;;;;22.15;13.70;;;;;;;9.66;62.37;100189.98;1678824;82;21236;-52
2021/03/15 09:26:54;;;;;;;21.52;12.53;;;;;;;9.58;62.61;100188.12;1703720;83;21235;-52
2021/03/15 09:30:23;;;;;;;22.10;12.85;;;;;;;9.58;62.93;100190.00;1665285;84;21194;-56
2021/03/15 09:33:28;;;;;;;23.83;13.98;;;;;;;9.62;62.74;100185.41;1655516;85;21286;-52
2021/03/15 09:36:39;;;;;;;23.98;12.63;;;;;;;9.59;63.00;100188.48;1661699;85;21292;-50
2021/03/15 09:39:44;;;;;;;20.82;12.60;;;;;;;9.73;63.13;100187.77;1656780;85;21361;-51
2021/03/15 09:42:51;;;;;;;22.80;13.15;;;;;;;9.88;62.89;100190.59;1653504;85;21651;-51
2021/03/15 09:46:09;;;;;;;24.15;13.15;;;;;;;9.93;62.49;100195.03;1656056;85;21292;-51
2021/03/15 09:49:15;;;;;;;23.57;13.13;;;;;;;9.91;62.43;100192.47;1655349;85;21243;-51
2021/03/15 09:52:28;;;;;;;21.65;12.85;;;;;;;9.87;62.07;100187.53;1658703;86;21591;-52
2021/03/15 09:55:36;;;;;;;23.40;13.00;;;;;;;9.87;61.98;100189.77;1633417;86;21430;-52
2021/03/15 09:58:42;;;;;;;20.82;13.43;;;;;;;9.95;62.27;100188.38;1621368;86;21780;-52
2021/03/15 10:01:54;;;;;;;23.62;13.05;;;;;;;10.12;62.04;100181.83;1626071;87;21298;-52
2021/03/15 10:05:08;;;;;;;19.40;12.95;;;;;;;10.23;61.79;100179.20;1625976;86;21337;-53
2021/03/15 10:08:32;;;;;;;26.05;13.72;;;;;;;10.35;61.50;100173.16;1625423;86;21320;-52
2021/03/15 10:11:55;;;;;;;;;;;;;;;10.56;61.33;100171.14;1628095;87;21293;-52
2021/03/15 10:15:12;;;;;;;23.38;13.95;;;;;;;10.75;61.17;100164.37;1651440;86;20243;-52
2021/03/15 10:18:28;;;;;;;24.35;13.65;;;;;;;10.91;61.19;100162.34;1641206;85;21818;-51
2021/03/15 10:21:35;;;;;;;20.08;13.03;;;;;;;11.11;60.89;100157.22;1630375;86;21381;-51
2021/03/15 10:24:41;;;;;;;23.00;13.88;;;;;;;11.29;60.13;100158.58;1631909;88;21477;-51
2021/03/15 10:27:48;;;;;;;24.72;15.32;;;;;;;11.44;59.44;100153.13;1637791;85;21260;-51
2021/03/15 10:30:57;;;;;;;22.07;12.53;;;;;;;11.54;59.34;100157.83;1679287;85;21240;-50
2021/03/15 10:34:04;;;;;;;18.25;11.65;;;;;;;11.63;59.21;100149.36;1689523;83;21225;-50
2021/03/15 10:37:21;;;;;;;23.45;11.68;;;;;;;11.76;58.86;100144.08;1689577;83;21706;-52
2021/03/15 10:40:30;;;;;;;20.48;12.33;;;;;;;11.87;58.67;100142.23;1702588;81;21209;-51
2021/03/15 10:43:37;;;;;;;19.98;11.55;;;;;;;11.96;58.18;100140.22;1689949;85;21413;-51
2021/03/15 10:47:02;;;;;;;19.75;12.45;;;;;;;11.92;57.94;100144.39;1728579;82;21367;-50
2021/03/15 10:50:34;;;;;;;17.27;12.25;;;;;;;11.76;57.51;100133.62;1717094;82;21221;-51
2021/03/15 10:53:56;;;;;;;13.90;8.55;;;;;;;11.69;58.18;100130.78;1689381;83;21379;-50
2021/03/15 10:57:28;;;;;;;12.45;8.25;;;;;;;11.82;56.94;100126.86;1682141;85;21454;-51
2021/03/15 11:00:35;;;;;;;13.25;7.90;;;;;;;11.87;56.91;100129.89;1668803;84;22055;-52
2021/03/15 11:03:42;;;;;;;18.45;8.95;;;;;;;11.96;55.45;100124.62;1665311;86;21404;-52
2021/03/15 11:06:50;;;;;;;17.73;8.73;;;;;;;11.96;54.93;100126.50;1666312;86;21235;-51
2021/03/15 11:10:11;;;;;;;18.82;9.28;;;;;;;12.07;54.54;100122.44;1698353;83;21802;-51
2021/03/15 11:13:25;;;;;;;15.30;8.93;;;;;;;12.22;54.77;100118.62;1697366;84;21237;-52
2021/03/15 11:16:38;;;;;;;14.38;8.05;;;;;;;12.35;54.19;100122.90;1634523;86;21222;-53
2021/03/15 11:19:45;;;;;;;;;;;;;;;12.39;53.29;100121.45;1686690;84;21218;-52
2021/03/15 11:22:54;;;;;;;15.18;7.85;;;;;;;12.51;53.05;100119.88;1703091;84;20205;-51
2021/03/15 11:26:16;;;;;;;13.68;8.08;;;;;;;12.69;52.82;100113.95;1704733;84;21220;-55
2021/03/15 11:29:22;;;;;;;12.58;6.90;;;;;;;12.91;52.55;100112.89;1665796;84;21218;-55
2021/03/15 11:32:29;;;;;;;12.53;6.75;;;;;;;13.21;52.76;100102.09;1638983;87;21245;-54
2021/03/15 11:35:39;;;;;;;14.55;6.90;;;;;;;13.41;51.01;100105.31;1628672;86;21217;-54
2021/03/15 11:38:48;;;;;;;11.60;8.13;;;;;;;13.27;50.56;100095.27;1648061;86;21256;-54
2021/03/15 11:41:56;;;;;;;12.90;7.12;;;;;;;13.25;50.16;100100.14;1701764;82;21245;-54
2021/03/15 11:45:01;;;;;;;12.10;7.62;;;;;;;13.19;50.24;100092.67;1693768;83;21222;-55
2021/03/15 11:48:08;;;;;;;17.27;8.58;;;;;;;13.25;50.27;100096.53;1645263;84;21290;-54
2021/03/15 11:51:21;;;;;;;12.78;7.80;;;;;;;13.19;50.76;100092.67;1663424;84;21275;-55
2021/03/15 11:54:29;;;;;;;14.87;9.40;;;;;;;13.28;51.31;100091.49;1676906;84;21214;-55
2021/03/15 11:57:39;;;;;;;13.80;8.20;;;;;;;13.39;51.31;100092.83;1706018;82;21536;-55
2021/03/15 12:00:46;;;;;;;15.45;9.23;;;;;;;13.46;51.24;100089.61;1665793;85;21214;-55
2021/03/15 12:03:54;;;;;;;13.48;9.10;;;;;;;13.52;50.94;100084.13;1709072;82;21213;-54
2021/03/15 12:07:01;;;;;;;15.18;8.55;;;;;;;13.43;50.89;100082.59;1705098;82;21398;-54
2021/03/15 12:10:11;;;;;;;16.32;8.98;;;;;;;13.40;50.81;100072.52;1702943;82;21977;-54
2021/03/15 12:13:17;;;;;;;16.65;10.00;;;;;;;13.31;50.62;100078.72;1712463;82;21715;-55
2021/03/15 12:16:26;;;;;;;11.40;8.53;;;;;;;13.15;49.99;100073.52;1705842;82;21220;-54
2021/03/15 12:19:31;;;;;;;20.62;9.70;;;;;;;13.06;50.33;100067.86;1706942;82;21189;-54
2021/03/15 12:22:42;;;;;;;13.83;7.80;;;;;;;13.05;50.63;100070.80;1709686;82;21430;-55
2021/03/15 12:25:48;;;;;;;14.13;7.37;;;;;;;13.02;49.47;100062.42;1705432;82;21506;-54
2021/03/15 12:28:57;;;;;;;16.05;8.70;;;;;;;12.93;49.24;100058.61;1704819;82;21213;-55
2021/03/15 12:32:05;;;;;;;11.53;8.00;;;;;;;12.86;49.51;100066.79;1666597;84;21576;-55
2021/03/15 12:35:13;;;;;;;11.63;7.85;;;;;;;12.93;49.62;100070.45;1657175;86;21246;-55
2021/03/15 12:38:19;;;;;;;10.43;7.05;;;;;;;12.97;49.46;100059.38;1705103;84;21747;-54
2021/03/15 12:41:30;;;;;;;12.85;7.20;;;;;;;13.09;49.24;100064.70;1706008;83;21236;-54
2021/03/15 12:44:36;;;;;;;10.40;7.35;;;;;;;13.17;48.55;100060.44;1697564;82;21423;-55
2021/03/15 12:47:42;;;;;;;14.50;7.87;;;;;;;13.23;48.88;100060.14;1703339;82;21241;-55
2021/03/15 12:50:48;;;;;;;15.58;7.83;;;;;;;13.29;48.73;100051.94;1661688;85;21844;-55
2021/03/15 12:53:57;;;;;;;16.42;8.58;;;;;;;13.41;48.69;100048.94;1651006;86;21245;-55
2021/03/15 12:57:08;;;;;;;18.32;9.18;;;;;;;13.59;48.37;100040.71;1651453;85;21217;-54
2021/03/15 13:00:22;;;;;;;12.15;7.78;;;;;;;13.71;48.68;100044.57;1689785;83;21202;-55
2021/03/15 13:03:30;;;;;;;11.25;6.55;;;;;;;13.83;48.35;100039.66;1655946;84;21235;-56
2021/03/15 13:06:35;;;;;;;16.70;8.48;;;;;;;13.88;48.58;100040.41;1698828;82;21276;-55
2021/03/15 13:10:00;;;;;;;15.10;8.60;;;;;;;13.89;48.87;100033.32;1686540;83;21734;-54
2021/03/15 13:13:10;;;;;;;16.57;9.73;;;;;;;13.90;48.49;100033.66;1664705;85;21253;-54
2021/03/15 13:16:18;;;;;;;12.98;8.90;;;;;;;13.82;48.60;100033.84;1651963;86;21222;-54
2021/03/15 13:19:23;;;;;;;17.62;10.03;;;;;;;13.76;48.94;100031.91;1700294;83;21228;-53
2021/03/15 13:22:28;;;;;;;15.88;10.65;;;;;;;13.69;48.90;100043.40;1700025;83;21230;-54
2021/03/15 13:25:36;;;;;;;17.98;11.45;;;;;;;13.61;49.01;100035.83;1676097;84;21254;-54
2021/03/15 13:28:45;;;;;;;21.97;12.80;;;;;;;13.51;49.22;100035.69;1691613;84;21260;-55
2021/03/15 13:31:53;;;;;;;17.20;10.58;;;;;;;13.46;49.49;100031.87;1656006;86;21355;-53
2021/03/15 13:34:59;;;;;;;19.45;11.38;;;;;;;13.45;49.80;100032.38;1705672;83;21343;-55
2021/03/15 13:38:06;;;;;;;19.85;11.75;;;;;;;13.45;49.99;100029.63;1691027;83;21362;-57
2021/03/15 13:41:16;;;;;;;16.93;12.20;;;;;;;13.46;50.27;100034.06;1655226;86;21417;-54
2021/03/15 13:44:24;;;;;;;24.32;13.88;;;;;;;13.49;50.46;100033.66;1702683;83;21185;-55
2021/03/15 13:47:30;;;;;;;29.52;16.30;;;;;;;13.53;50.66;100035.48;1709827;83;21389;-55
2021/03/15 13:50:38;;;;;;;34.25;19.35;;;;;;;13.58;51.17;100032.12;1689838;83;21764;-54
2021/03/15 13:53:43;;;;;;;33.28;18.75;;;;;;;13.62;51.09;100029.30;1707356;82;21228;-54
2021/03/15 13:56:48;;;;;;;35.23;18.70;;;;;;;13.64;51.49;100030.78;1704031;84;21490;-54
2021/03/15 13:59:55;;;;;;;29.42;18.07;;;;;;;13.67;51.45;100026.79;1703438;84;21571;-54
2021/03/15 14:03:06;;;;;;;27.95;17.20;;;;;;;13.68;51.55;100025.21;1707204;83;22058;-54
2021/03/15 14:06:11;;;;;;;27.98;15.83;;;;;;;13.68;51.53;100028.48;1682090;84;21750;-55
2021/03/15 14:09:16;;;;;;;25.10;17.12;;;;;;;13.69;51.74;100020.53;1703685;82;21230;-54
2021/03/15 14:12:23;;;;;;;27.22;18.17;;;;;;;13.74;51.85;100020.77;1713427;82;21793;-53
2021/03/15 14:15:30;;;;;;;31.50;17.50;;;;;;;13.73;51.72;100019.91;1713826;83;21849;-55
2021/03/15 14:18:35;;;;;;;37.78;18.20;;;;;;;13.73;51.85;100021.84;1713937;83;21245;-54
2021/03/15 14:21:43;;;;;;;30.32;16.40;;;;;;;13.70;52.08;100016.20;1712739;83;21313;-54
2021/03/15 14:24:52;;;;;;;24.10;15.40;;;;;;;13.69;52.39;100020.53;1713249;83;21801;-55
2021/03/15 14:28:19;;;;;;;21.00;15.45;;;;;;;13.66;52.35;100016.30;1714895;83;21370;-54
2021/03/15 14:31:46;;;;;;;21.93;14.68;;;;;;;13.66;52.43;100014.93;1634196;88;21250;-54